Dutse International Airport

DNDS · Jigawa, 尼日利亚

METAR DNDS · Dutse International Airport

使用的METAR站距离机场90 km。
罗盘
风向 的 风向 210° Dutse International Airport 6/24
风: 7 kt, 3 beaufort

6 kt

3 kt
改变
0 ft 1.000 2.000 3.000 4.000 5.000
CAVOK
METAR DNKN 211800Z 21007KT CAVOK 38/15 Q1007 NOSIG

METAR Dutse International Airport - DNDS

Dutse International Airport是,尼日利亚中的小机场。 该机场位于纬度11,79518和经度9,30115。 该机场有一条跑道: 6/24. 本场的ICAO机场代码为DNDS。 机场在Kano FIR中。

该航空气象观测是针对Mallam Aminu International Airport在2024年4月21日 19:00, 当地时间进行的。

机场观察

风向为210°,速度为7 kt。

天气为CAVOK。这意味着在5.000 ft或MSA(最低安全高度)以下(以较高者为准)以下没有云。这也意味着没有观测到积雨云或高耸的积云,可见度为10 km 或者更多或更高。此外,不会有雾,降雨或其他重要天气。

温度和风寒是38 °C。 露点为15 °C,相对湿度为25%。 海平面上的气压为1007 hPa (QNH)。

白天

今天,太阳从06:07升起,在18:35降落。 这适用于Dutse International Airport,世界夏令时可能有所不同。 当地时间与世界标准时间之间的时差为+1 小时。 夏令时目前正在进行中。

公司介绍

我们没有关于这个机场的公司信息。

体会

到Vliegles.nl去找飞行课程,跳伞和其他飞行体验。 浏览页面,了解Dutse International Airport附近所有可用的活动。 你也可以使用搜索功能来寻找你所在地附近的特定飞行课程、跳伞或其他飞行体验。

跑道

Id 标题 侧风 逆风 侧风 %
6/24 058°-238° 3 kt 6 kt 47 %

逆风成分最大的方向会被突出显示,并用于横风计算。 这并不一定意味着这个方向在使用。

温度 & 天气

温度 38 °C
露点 15 °C
相对湿度 25%
Kp-index 0 (0-9)

白天

日出
06:10 (10:52)
中午
12:24
日落
18:38

小工具

你想在你的网站上有一个关于Dutse International Airport的当前航空天气(METAR)的小部件吗?

显示HTML代码
报告变更